ITY815 LGZA-LIRF
Flight info
| Callsign | ITY815 |
|---|---|
| Flight time | 1h 40m |
| Altitude | 38000 |
| Route | KFN UM601 RUTOM DCT GEMVI DCT INGAB DCT SOR DCT LAT |
| Aircraft | A320/M-SDE3FGHIRWY/LB1 |
Departure
| Time | 2026-05-08 12:12 |
|---|---|
| Airport | Zakynthos International Airport Dionysios Solomos (LGZA) |
Arrival
| Time | 2026-05-08 13:52 |
|---|---|
| Airport | Rome–Fiumicino Leonardo da Vinci International Airport (LIRF) |
| Time | Latitude | Longitude | Altitude | Speed | Heading |
|---|---|---|---|---|---|
| 2026-05-08 11:46 | 37.75409 | 20.88525 | 21 ft | 0 kts | 73° |
| 2026-05-08 12:00 | 37.75410 | 20.88527 | 22 ft | 0 kts | 73° |
| 2026-05-08 12:00 | 37.75411 | 20.88533 | 22 ft | 1 kts | 73° |
| 2026-05-08 12:01 | 37.75411 | 20.88534 | 22 ft | 0 kts | 73° |
| 2026-05-08 12:07 | 37.75408 | 20.88537 | 22 ft | 1 kts | 116° |
| 2026-05-08 12:07 | 37.75401 | 20.88526 | 20 ft | 2 kts | 248° |
| 2026-05-08 12:08 | 37.75397 | 20.88510 | 22 ft | 2 kts | 253° |
| 2026-05-08 12:08 | 37.75393 | 20.88486 | 20 ft | 3 kts | 257° |
| 2026-05-08 12:08 | 37.75394 | 20.88455 | 20 ft | 5 kts | 290° |
| 2026-05-08 12:08 | 37.75441 | 20.88416 | 21 ft | 9 kts | 333° |
| 2026-05-08 12:09 | 37.75474 | 20.88352 | 23 ft | 8 kts | 289° |
| 2026-05-08 12:09 | 37.75497 | 20.88291 | 21 ft | 7 kts | 307° |
| 2026-05-08 12:09 | 37.75559 | 20.88252 | 21 ft | 13 kts | 342° |
| 2026-05-08 12:09 | 37.75667 | 20.88210 | 25 ft | 18 kts | 343° |
| 2026-05-08 12:10 | 37.75783 | 20.88168 | 24 ft | 17 kts | 344° |
| 2026-05-08 12:10 | 37.75899 | 20.88123 | 22 ft | 17 kts | 343° |
| 2026-05-08 12:10 | 37.76007 | 20.88070 | 20 ft | 14 kts | 319° |
| 2026-05-08 12:10 | 37.76070 | 20.88061 | 22 ft | 10 kts | 59° |
| 2026-05-08 12:11 | 37.76034 | 20.88103 | 20 ft | 9 kts | 192° |
| 2026-05-08 12:11 | 37.75970 | 20.88098 | 21 ft | 10 kts | 165° |
| 2026-05-08 12:11 | 37.75834 | 20.88149 | 23 ft | 49 kts | 163° |
| 2026-05-08 12:11 | 37.75262 | 20.88363 | 20 ft | 119 kts | 163° |
| 2026-05-08 12:12 | 37.74367 | 20.88677 | 476 ft | 137 kts | 164° |
| 2026-05-08 12:12 | 37.73442 | 20.89002 | 1289 ft | 139 kts | 165° |
| 2026-05-08 12:12 | 37.72436 | 20.89366 | 1758 ft | 161 kts | 165° |
| 2026-05-08 12:12 | 37.71294 | 20.89814 | 2158 ft | 184 kts | 165° |
| 2026-05-08 12:13 | 37.70039 | 20.90318 | 2907 ft | 195 kts | 167° |
| 2026-05-08 12:13 | 37.68709 | 20.90848 | 3684 ft | 205 kts | 169° |
| 2026-05-08 12:13 | 37.67321 | 20.91393 | 4522 ft | 213 kts | 171° |
| 2026-05-08 12:13 | 37.65896 | 20.91949 | 5326 ft | 220 kts | 170° |
| 2026-05-08 12:14 | 37.64415 | 20.92527 | 6200 ft | 226 kts | 170° |
| 2026-05-08 12:14 | 37.62897 | 20.93119 | 7047 ft | 230 kts | 171° |
| 2026-05-08 12:14 | 37.61350 | 20.93720 | 7892 ft | 235 kts | 172° |
| 2026-05-08 12:14 | 37.59775 | 20.94325 | 8764 ft | 239 kts | 172° |
| 2026-05-08 12:15 | 37.58169 | 20.94910 | 9608 ft | 243 kts | 178° |
| 2026-05-08 12:15 | 37.56463 | 20.94906 | 10055 ft | 251 kts | 202° |
| 2026-05-08 12:15 | 37.54901 | 20.93879 | 10463 ft | 261 kts | 228° |
| 2026-05-08 12:15 | 37.53899 | 20.91921 | 10850 ft | 278 kts | 254° |
| 2026-05-08 12:16 | 37.53865 | 20.89446 | 11436 ft | 294 kts | 283° |
| 2026-05-08 12:16 | 37.54848 | 20.87121 | 12259 ft | 307 kts | 300° |
| 2026-05-08 12:16 | 37.56067 | 20.84887 | 13149 ft | 311 kts | 299° |
| 2026-05-08 12:16 | 37.56875 | 20.83387 | 13720 ft | 313 kts | 298° |
| 2026-05-08 12:17 | 37.58100 | 20.81094 | 14485 ft | 317 kts | 298° |
| 2026-05-08 12:17 | 37.59332 | 20.78773 | 15264 ft | 320 kts | 298° |
| 2026-05-08 12:17 | 37.60571 | 20.76433 | 16039 ft | 322 kts | 298° |
| 2026-05-08 12:17 | 37.61822 | 20.74072 | 16810 ft | 325 kts | 298° |
| 2026-05-08 12:18 | 37.63089 | 20.71685 | 17577 ft | 329 kts | 298° |
| 2026-05-08 12:18 | 37.64368 | 20.69274 | 18330 ft | 332 kts | 298° |
| 2026-05-08 12:18 | 37.65659 | 20.66840 | 18972 ft | 335 kts | 298° |
| 2026-05-08 12:18 | 37.66962 | 20.64380 | 19611 ft | 338 kts | 298° |
| 2026-05-08 12:19 | 37.68258 | 20.61929 | 20254 ft | 341 kts | 298° |
| 2026-05-08 12:19 | 37.69584 | 20.59418 | 20872 ft | 344 kts | 298° |
| 2026-05-08 12:19 | 37.70918 | 20.56881 | 21490 ft | 347 kts | 298° |
| 2026-05-08 12:19 | 37.72265 | 20.54320 | 22097 ft | 351 kts | 298° |
| 2026-05-08 12:20 | 37.73606 | 20.51775 | 22682 ft | 354 kts | 299° |
| 2026-05-08 12:20 | 37.74978 | 20.49176 | 23275 ft | 357 kts | 299° |
| 2026-05-08 12:20 | 37.76362 | 20.46554 | 23851 ft | 359 kts | 298° |
| 2026-05-08 12:20 | 37.77755 | 20.43913 | 24387 ft | 361 kts | 298° |
| 2026-05-08 12:21 | 37.79151 | 20.41265 | 24899 ft | 362 kts | 298° |
| 2026-05-08 12:21 | 37.80550 | 20.38603 | 25401 ft | 364 kts | 298° |
| 2026-05-08 12:21 | 37.81952 | 20.35930 | 25891 ft | 366 kts | 298° |
| 2026-05-08 12:21 | 37.83363 | 20.33239 | 26364 ft | 368 kts | 298° |
| 2026-05-08 12:22 | 37.84784 | 20.30530 | 26845 ft | 370 kts | 298° |
| 2026-05-08 12:22 | 37.86212 | 20.27808 | 27315 ft | 372 kts | 298° |
| 2026-05-08 12:22 | 37.87627 | 20.25109 | 27772 ft | 374 kts | 298° |
| 2026-05-08 12:22 | 37.89068 | 20.22352 | 28232 ft | 376 kts | 298° |
| 2026-05-08 12:23 | 37.90511 | 20.19585 | 28688 ft | 378 kts | 298° |
| 2026-05-08 12:23 | 37.91964 | 20.16795 | 29140 ft | 380 kts | 298° |
| 2026-05-08 12:23 | 37.93422 | 20.13998 | 29579 ft | 382 kts | 298° |
| 2026-05-08 12:23 | 37.94891 | 20.11184 | 30043 ft | 384 kts | 298° |
| 2026-05-08 12:24 | 37.96364 | 20.08356 | 30410 ft | 386 kts | 298° |
| 2026-05-08 12:24 | 37.97843 | 20.05515 | 30747 ft | 388 kts | 298° |
| 2026-05-08 12:24 | 37.99334 | 20.02649 | 31079 ft | 390 kts | 298° |
| 2026-05-08 12:24 | 38.00829 | 19.99774 | 31403 ft | 392 kts | 298° |
| 2026-05-08 12:25 | 38.02334 | 19.96873 | 31726 ft | 394 kts | 298° |
| 2026-05-08 12:25 | 38.03822 | 19.93998 | 32099 ft | 394 kts | 298° |
| 2026-05-08 12:25 | 38.05322 | 19.91101 | 32563 ft | 392 kts | 298° |
| 2026-05-08 12:25 | 38.06821 | 19.88209 | 33018 ft | 391 kts | 298° |
| 2026-05-08 12:26 | 38.08312 | 19.85329 | 33471 ft | 390 kts | 298° |
| 2026-05-08 12:26 | 38.09799 | 19.82457 | 33964 ft | 388 kts | 298° |
| 2026-05-08 12:26 | 38.11281 | 19.79592 | 34419 ft | 386 kts | 298° |
| 2026-05-08 12:26 | 38.12749 | 19.76749 | 34857 ft | 383 kts | 298° |
| 2026-05-08 12:27 | 38.14210 | 19.73917 | 35243 ft | 382 kts | 298° |
| 2026-05-08 12:27 | 38.15663 | 19.71086 | 35586 ft | 381 kts | 298° |
| 2026-05-08 12:27 | 38.17112 | 19.68256 | 35914 ft | 381 kts | 298° |
| 2026-05-08 12:27 | 38.18559 | 19.65434 | 36223 ft | 381 kts | 298° |
| 2026-05-08 12:28 | 38.20006 | 19.62614 | 36526 ft | 381 kts | 298° |
| 2026-05-08 12:28 | 38.21454 | 19.59796 | 36825 ft | 381 kts | 298° |
| 2026-05-08 12:28 | 38.22886 | 19.57002 | 37114 ft | 381 kts | 298° |
| 2026-05-08 12:28 | 38.24334 | 19.54177 | 37401 ft | 381 kts | 298° |
| 2026-05-08 12:29 | 38.25779 | 19.51347 | 37680 ft | 380 kts | 297° |
| 2026-05-08 12:29 | 38.27220 | 19.48521 | 37935 ft | 381 kts | 297° |
| 2026-05-08 12:29 | 38.30100 | 19.42878 | 38004 ft | 378 kts | 297° |
| 2026-05-08 12:30 | 38.32965 | 19.37270 | 37999 ft | 377 kts | 297° |
| 2026-05-08 12:30 | 38.35797 | 19.31701 | 37996 ft | 377 kts | 297° |
| 2026-05-08 12:31 | 38.38645 | 19.26095 | 38003 ft | 377 kts | 297° |
| 2026-05-08 12:31 | 38.41500 | 19.20473 | 37999 ft | 377 kts | 297° |
| 2026-05-08 12:32 | 38.44346 | 19.14846 | 38003 ft | 378 kts | 297° |
| 2026-05-08 12:32 | 38.47184 | 19.09223 | 37999 ft | 379 kts | 297° |
| 2026-05-08 12:33 | 38.50046 | 19.03543 | 37984 ft | 381 kts | 298° |
| 2026-05-08 12:33 | 38.52923 | 18.97841 | 37978 ft | 382 kts | 298° |
| 2026-05-08 12:34 | 38.55816 | 18.92131 | 37980 ft | 383 kts | 298° |
| 2026-05-08 12:34 | 38.58712 | 18.86409 | 37983 ft | 383 kts | 298° |
| 2026-05-08 12:35 | 38.61593 | 18.80701 | 37986 ft | 384 kts | 298° |
| 2026-05-08 12:35 | 38.64485 | 18.74951 | 37991 ft | 383 kts | 298° |
| 2026-05-08 12:36 | 38.67370 | 18.69202 | 37994 ft | 383 kts | 298° |
| 2026-05-08 12:36 | 38.70249 | 18.63457 | 37995 ft | 383 kts | 298° |
| 2026-05-08 12:37 | 38.73114 | 18.57744 | 37989 ft | 383 kts | 298° |
| 2026-05-08 12:37 | 38.75993 | 18.51998 | 38035 ft | 383 kts | 298° |
| 2026-05-08 12:38 | 38.78866 | 18.46224 | 37980 ft | 383 kts | 298° |
| 2026-05-08 12:38 | 38.81736 | 18.40465 | 37987 ft | 384 kts | 298° |
| 2026-05-08 12:39 | 38.84612 | 18.34693 | 37993 ft | 383 kts | 298° |
| 2026-05-08 12:39 | 38.87477 | 18.28923 | 37993 ft | 383 kts | 298° |
| 2026-05-08 12:40 | 38.90313 | 18.23180 | 37991 ft | 383 kts | 298° |
| 2026-05-08 12:40 | 38.93167 | 18.17404 | 37990 ft | 382 kts | 298° |
| 2026-05-08 12:41 | 38.96019 | 18.11637 | 37987 ft | 382 kts | 298° |
| 2026-05-08 12:41 | 38.98865 | 18.05859 | 37986 ft | 382 kts | 298° |
| 2026-05-08 12:42 | 39.01701 | 18.00080 | 37986 ft | 382 kts | 298° |
| 2026-05-08 12:42 | 39.04541 | 17.94290 | 37986 ft | 382 kts | 298° |
| 2026-05-08 12:43 | 39.07362 | 17.88547 | 37986 ft | 382 kts | 298° |
| 2026-05-08 12:43 | 39.10199 | 17.82747 | 37986 ft | 384 kts | 298° |
| 2026-05-08 12:44 | 39.13015 | 17.76900 | 37981 ft | 384 kts | 297° |
| 2026-05-08 12:44 | 39.15758 | 17.70992 | 37984 ft | 384 kts | 297° |
| 2026-05-08 12:45 | 39.18483 | 17.65077 | 37991 ft | 383 kts | 297° |
| 2026-05-08 12:45 | 39.21211 | 17.59178 | 37994 ft | 383 kts | 297° |
| 2026-05-08 12:46 | 39.23929 | 17.53314 | 37985 ft | 382 kts | 297° |
| 2026-05-08 12:46 | 39.26663 | 17.47424 | 37984 ft | 382 kts | 297° |
| 2026-05-08 12:47 | 39.29388 | 17.41518 | 37995 ft | 382 kts | 297° |
| 2026-05-08 12:47 | 39.32101 | 17.35616 | 38003 ft | 382 kts | 297° |
| 2026-05-08 12:48 | 39.34795 | 17.29757 | 38000 ft | 381 kts | 297° |
| 2026-05-08 12:48 | 39.37502 | 17.23859 | 37998 ft | 381 kts | 297° |
| 2026-05-08 12:49 | 39.40200 | 17.17956 | 38003 ft | 381 kts | 297° |
| 2026-05-08 12:49 | 39.42898 | 17.12054 | 37999 ft | 380 kts | 297° |
| 2026-05-08 12:50 | 39.45575 | 17.06199 | 38001 ft | 380 kts | 297° |
| 2026-05-08 12:50 | 39.48259 | 17.00291 | 38018 ft | 379 kts | 297° |
| 2026-05-08 12:51 | 39.52267 | 16.91477 | 38015 ft | 377 kts | 297° |
| 2026-05-08 12:52 | 39.54909 | 16.85660 | 38022 ft | 376 kts | 297° |
| 2026-05-08 12:52 | 39.58891 | 16.76854 | 38028 ft | 376 kts | 297° |
| 2026-05-08 12:53 | 39.61519 | 16.71023 | 38022 ft | 375 kts | 297° |
| 2026-05-08 12:53 | 39.64132 | 16.65209 | 38031 ft | 375 kts | 296° |
| 2026-05-08 12:54 | 39.66757 | 16.59365 | 38033 ft | 374 kts | 297° |
| 2026-05-08 12:54 | 39.69379 | 16.53527 | 38030 ft | 374 kts | 296° |
| 2026-05-08 12:55 | 39.71993 | 16.47688 | 38029 ft | 374 kts | 296° |
| 2026-05-08 12:55 | 39.74610 | 16.41840 | 38015 ft | 374 kts | 297° |
| 2026-05-08 12:56 | 39.77205 | 16.36009 | 38008 ft | 375 kts | 297° |
| 2026-05-08 12:56 | 39.79820 | 16.30136 | 38024 ft | 375 kts | 296° |
| 2026-05-08 12:57 | 39.82439 | 16.24249 | 38026 ft | 375 kts | 296° |
| 2026-05-08 12:57 | 39.85044 | 16.18377 | 38030 ft | 374 kts | 296° |
| 2026-05-08 12:58 | 39.87623 | 16.12543 | 38017 ft | 373 kts | 296° |
| 2026-05-08 12:58 | 39.90217 | 16.06677 | 38019 ft | 373 kts | 296° |
| 2026-05-08 12:59 | 39.92802 | 16.00812 | 38021 ft | 373 kts | 296° |
| 2026-05-08 12:59 | 39.95390 | 15.94936 | 38019 ft | 372 kts | 296° |
| 2026-05-08 13:00 | 39.97966 | 15.89087 | 38023 ft | 372 kts | 296° |
| 2026-05-08 13:00 | 40.00525 | 15.83267 | 38013 ft | 371 kts | 296° |
| 2026-05-08 13:01 | 40.03031 | 15.77381 | 38014 ft | 370 kts | 294° |
| 2026-05-08 13:01 | 40.05371 | 15.71393 | 38033 ft | 370 kts | 293° |
| 2026-05-08 13:02 | 40.07291 | 15.66385 | 38000 ft | 371 kts | 294° |
| 2026-05-08 13:02 | 40.09625 | 15.60358 | 37987 ft | 372 kts | 294° |
| 2026-05-08 13:03 | 40.11989 | 15.54312 | 37983 ft | 373 kts | 294° |
| 2026-05-08 13:03 | 40.14357 | 15.48256 | 37980 ft | 374 kts | 294° |
| 2026-05-08 13:04 | 40.16714 | 15.42220 | 37987 ft | 374 kts | 294° |
| 2026-05-08 13:04 | 40.19070 | 15.36143 | 37977 ft | 373 kts | 294° |
| 2026-05-08 13:05 | 40.21413 | 15.30087 | 37988 ft | 375 kts | 294° |
| 2026-05-08 13:05 | 40.23787 | 15.23982 | 38007 ft | 375 kts | 294° |
| 2026-05-08 13:06 | 40.26143 | 15.17909 | 38005 ft | 374 kts | 294° |
| 2026-05-08 13:06 | 40.28479 | 15.11838 | 38003 ft | 373 kts | 294° |
| 2026-05-08 13:07 | 40.30789 | 15.05812 | 38000 ft | 372 kts | 293° |
| 2026-05-08 13:07 | 40.33119 | 14.99743 | 37980 ft | 372 kts | 293° |
| 2026-05-08 13:08 | 40.35442 | 14.93684 | 37989 ft | 372 kts | 293° |
| 2026-05-08 13:08 | 40.37766 | 14.87617 | 37981 ft | 372 kts | 294° |
| 2026-05-08 13:09 | 40.40083 | 14.81553 | 37995 ft | 371 kts | 293° |
| 2026-05-08 13:09 | 40.42392 | 14.75489 | 37981 ft | 372 kts | 293° |
| 2026-05-08 13:10 | 40.44697 | 14.69414 | 37981 ft | 372 kts | 293° |
| 2026-05-08 13:10 | 40.46999 | 14.63332 | 37979 ft | 372 kts | 293° |
| 2026-05-08 13:11 | 40.49303 | 14.57244 | 37982 ft | 372 kts | 293° |
| 2026-05-08 13:11 | 40.51611 | 14.51146 | 37988 ft | 372 kts | 293° |
| 2026-05-08 13:12 | 40.53912 | 14.45038 | 37987 ft | 372 kts | 293° |
| 2026-05-08 13:12 | 40.56191 | 14.38965 | 37991 ft | 372 kts | 293° |
| 2026-05-08 13:13 | 40.58689 | 14.32980 | 37990 ft | 377 kts | 302° |
| 2026-05-08 13:13 | 40.62205 | 14.27788 | 37989 ft | 380 kts | 307° |
| 2026-05-08 13:14 | 40.65742 | 14.22680 | 37981 ft | 380 kts | 307° |
| 2026-05-08 13:14 | 40.69287 | 14.17514 | 38001 ft | 380 kts | 307° |
| 2026-05-08 13:15 | 40.72831 | 14.12349 | 37977 ft | 379 kts | 307° |
| 2026-05-08 13:15 | 40.76386 | 14.07190 | 37645 ft | 383 kts | 307° |
| 2026-05-08 13:16 | 40.78187 | 14.04573 | 36966 ft | 383 kts | 307° |
| 2026-05-08 13:16 | 40.79948 | 14.02015 | 36502 ft | 378 kts | 307° |
| 2026-05-08 13:16 | 40.81708 | 13.99457 | 36066 ft | 372 kts | 307° |
| 2026-05-08 13:16 | 40.83431 | 13.96947 | 35612 ft | 366 kts | 307° |
| 2026-05-08 13:17 | 40.85132 | 13.94461 | 35147 ft | 362 kts | 307° |
| 2026-05-08 13:17 | 40.86793 | 13.92029 | 34696 ft | 358 kts | 307° |
| 2026-05-08 13:17 | 40.88456 | 13.89592 | 34239 ft | 354 kts | 308° |
| 2026-05-08 13:17 | 40.90092 | 13.87192 | 33744 ft | 350 kts | 308° |
| 2026-05-08 13:18 | 40.91711 | 13.84817 | 33261 ft | 345 kts | 307° |
| 2026-05-08 13:18 | 40.93306 | 13.82477 | 32834 ft | 340 kts | 307° |
| 2026-05-08 13:18 | 40.94875 | 13.80172 | 32427 ft | 335 kts | 307° |
| 2026-05-08 13:18 | 40.96423 | 13.77889 | 31970 ft | 332 kts | 307° |
| 2026-05-08 13:19 | 40.97952 | 13.75629 | 31555 ft | 327 kts | 307° |
| 2026-05-08 13:19 | 40.99461 | 13.73399 | 31139 ft | 323 kts | 307° |
| 2026-05-08 13:19 | 41.00955 | 13.71196 | 30734 ft | 320 kts | 307° |
| 2026-05-08 13:19 | 41.02444 | 13.69007 | 30327 ft | 318 kts | 307° |
| 2026-05-08 13:20 | 41.03903 | 13.66859 | 29908 ft | 317 kts | 307° |
| 2026-05-08 13:20 | 41.05391 | 13.64661 | 29488 ft | 316 kts | 307° |
| 2026-05-08 13:20 | 41.06840 | 13.62520 | 29107 ft | 316 kts | 307° |
| 2026-05-08 13:20 | 41.08307 | 13.60352 | 28720 ft | 315 kts | 307° |
| 2026-05-08 13:21 | 41.09769 | 13.58187 | 28350 ft | 315 kts | 307° |
| 2026-05-08 13:21 | 41.11230 | 13.56023 | 27970 ft | 315 kts | 307° |
| 2026-05-08 13:21 | 41.12695 | 13.53854 | 27597 ft | 315 kts | 307° |
| 2026-05-08 13:21 | 41.14158 | 13.51687 | 27228 ft | 314 kts | 307° |
| 2026-05-08 13:22 | 41.15601 | 13.49547 | 26863 ft | 314 kts | 307° |
| 2026-05-08 13:22 | 41.17053 | 13.47394 | 26495 ft | 311 kts | 307° |
| 2026-05-08 13:22 | 41.18491 | 13.45259 | 26127 ft | 310 kts | 307° |
| 2026-05-08 13:22 | 41.19923 | 13.43127 | 25781 ft | 309 kts | 307° |
| 2026-05-08 13:23 | 41.21367 | 13.40974 | 25378 ft | 315 kts | 308° |
| 2026-05-08 13:23 | 41.22868 | 13.38725 | 24922 ft | 331 kts | 308° |
| 2026-05-08 13:23 | 41.24413 | 13.36413 | 24453 ft | 336 kts | 308° |
| 2026-05-08 13:23 | 41.25973 | 13.34087 | 23995 ft | 338 kts | 308° |
| 2026-05-08 13:24 | 41.27540 | 13.31755 | 23529 ft | 338 kts | 308° |
| 2026-05-08 13:24 | 41.29111 | 13.29416 | 22989 ft | 338 kts | 308° |
| 2026-05-08 13:24 | 41.30672 | 13.27085 | 22497 ft | 336 kts | 308° |
| 2026-05-08 13:24 | 41.32221 | 13.24763 | 22023 ft | 335 kts | 308° |
| 2026-05-08 13:25 | 41.33744 | 13.22475 | 21577 ft | 333 kts | 308° |
| 2026-05-08 13:25 | 41.35279 | 13.20172 | 21113 ft | 332 kts | 308° |
| 2026-05-08 13:25 | 41.36807 | 13.17883 | 20665 ft | 330 kts | 309° |
| 2026-05-08 13:25 | 41.38333 | 13.15596 | 20224 ft | 329 kts | 309° |
| 2026-05-08 13:26 | 41.39849 | 13.13325 | 19798 ft | 327 kts | 309° |
| 2026-05-08 13:26 | 41.41351 | 13.11070 | 19443 ft | 324 kts | 308° |
| 2026-05-08 13:26 | 41.42844 | 13.08825 | 19086 ft | 322 kts | 308° |
| 2026-05-08 13:26 | 41.44331 | 13.06586 | 18668 ft | 322 kts | 308° |
| 2026-05-08 13:27 | 41.45816 | 13.04347 | 18249 ft | 322 kts | 309° |
| 2026-05-08 13:27 | 41.47307 | 13.02098 | 17763 ft | 324 kts | 309° |
| 2026-05-08 13:27 | 41.48802 | 12.99844 | 17313 ft | 325 kts | 309° |
| 2026-05-08 13:27 | 41.50287 | 12.97601 | 16846 ft | 326 kts | 309° |
| 2026-05-08 13:28 | 41.51786 | 12.95330 | 16394 ft | 326 kts | 309° |
| 2026-05-08 13:28 | 41.53284 | 12.93062 | 15990 ft | 325 kts | 309° |
| 2026-05-08 13:28 | 41.54844 | 12.90894 | 15617 ft | 323 kts | 315° |
| 2026-05-08 13:28 | 41.56491 | 12.88858 | 15249 ft | 322 kts | 315° |
| 2026-05-08 13:29 | 41.58129 | 12.86826 | 14874 ft | 320 kts | 315° |
| 2026-05-08 13:29 | 41.59754 | 12.84801 | 14520 ft | 318 kts | 315° |
| 2026-05-08 13:29 | 41.61372 | 12.82781 | 14168 ft | 317 kts | 315° |
| 2026-05-08 13:29 | 41.62958 | 12.80795 | 13824 ft | 316 kts | 315° |
| 2026-05-08 13:30 | 41.64564 | 12.78778 | 13428 ft | 317 kts | 316° |
| 2026-05-08 13:30 | 41.66172 | 12.76760 | 13021 ft | 316 kts | 315° |
| 2026-05-08 13:30 | 41.67770 | 12.74757 | 12638 ft | 314 kts | 316° |
| 2026-05-08 13:30 | 41.69358 | 12.72765 | 12248 ft | 312 kts | 316° |
| 2026-05-08 13:31 | 41.70936 | 12.70785 | 11871 ft | 310 kts | 317° |
| 2026-05-08 13:31 | 41.72507 | 12.68816 | 11499 ft | 308 kts | 317° |
| 2026-05-08 13:31 | 41.74067 | 12.66860 | 11135 ft | 306 kts | 317° |
| 2026-05-08 13:31 | 41.75614 | 12.64917 | 10764 ft | 304 kts | 317° |
| 2026-05-08 13:32 | 41.77150 | 12.62985 | 10404 ft | 302 kts | 318° |
| 2026-05-08 13:32 | 41.78667 | 12.61076 | 10035 ft | 293 kts | 318° |
| 2026-05-08 13:32 | 41.80119 | 12.59243 | 9650 ft | 280 kts | 318° |
| 2026-05-08 13:32 | 41.81496 | 12.57472 | 9258 ft | 272 kts | 317° |
| 2026-05-08 13:33 | 41.82831 | 12.55684 | 8874 ft | 271 kts | 316° |
| 2026-05-08 13:33 | 41.84154 | 12.53881 | 8489 ft | 271 kts | 316° |
| 2026-05-08 13:33 | 41.85464 | 12.52091 | 8102 ft | 264 kts | 316° |
| 2026-05-08 13:33 | 41.86750 | 12.50340 | 7730 ft | 263 kts | 316° |
| 2026-05-08 13:34 | 41.88034 | 12.48600 | 7356 ft | 262 kts | 316° |
| 2026-05-08 13:34 | 41.89368 | 12.46946 | 6986 ft | 259 kts | 325° |
| 2026-05-08 13:34 | 41.90901 | 12.45769 | 6627 ft | 256 kts | 339° |
| 2026-05-08 13:34 | 41.92581 | 12.45036 | 6263 ft | 253 kts | 345° |
| 2026-05-08 13:35 | 41.94254 | 12.44353 | 6012 ft | 245 kts | 345° |
| 2026-05-08 13:35 | 41.95853 | 12.43689 | 6006 ft | 239 kts | 344° |
| 2026-05-08 13:35 | 41.97445 | 12.43023 | 5837 ft | 239 kts | 344° |
| 2026-05-08 13:35 | 41.99026 | 12.42360 | 5579 ft | 236 kts | 344° |
| 2026-05-08 13:36 | 42.00582 | 12.41710 | 5327 ft | 233 kts | 344° |
| 2026-05-08 13:36 | 42.02127 | 12.41069 | 5072 ft | 232 kts | 344° |
| 2026-05-08 13:36 | 42.03664 | 12.40431 | 4833 ft | 231 kts | 343° |
| 2026-05-08 13:36 | 42.05195 | 12.39792 | 4569 ft | 230 kts | 344° |
| 2026-05-08 13:37 | 42.06706 | 12.39160 | 4314 ft | 229 kts | 343° |
| 2026-05-08 13:37 | 42.08224 | 12.38524 | 4084 ft | 228 kts | 343° |
| 2026-05-08 13:37 | 42.09737 | 12.37890 | 3994 ft | 227 kts | 343° |
| 2026-05-08 13:37 | 42.11251 | 12.37260 | 3998 ft | 228 kts | 344° |
| 2026-05-08 13:38 | 42.12765 | 12.36611 | 3885 ft | 228 kts | 339° |
| 2026-05-08 13:38 | 42.14065 | 12.35408 | 3764 ft | 229 kts | 311° |
| 2026-05-08 13:38 | 42.14794 | 12.33523 | 3633 ft | 227 kts | 283° |
| 2026-05-08 13:38 | 42.14774 | 12.31439 | 3508 ft | 224 kts | 255° |
| 2026-05-08 13:39 | 42.14048 | 12.29595 | 3390 ft | 225 kts | 234° |
| 2026-05-08 13:39 | 42.13115 | 12.27940 | 3262 ft | 225 kts | 233° |
| 2026-05-08 13:39 | 42.12169 | 12.26260 | 3139 ft | 224 kts | 234° |
| 2026-05-08 13:39 | 42.11231 | 12.24588 | 3033 ft | 224 kts | 234° |
| 2026-05-08 13:40 | 42.10294 | 12.22916 | 2986 ft | 223 kts | 234° |
| 2026-05-08 13:40 | 42.09364 | 12.21257 | 2986 ft | 216 kts | 234° |
| 2026-05-08 13:40 | 42.08488 | 12.19700 | 2983 ft | 201 kts | 233° |
| 2026-05-08 13:40 | 42.07483 | 12.18464 | 3138 ft | 194 kts | 213° |
| 2026-05-08 13:41 | 42.06250 | 12.17777 | 3178 ft | 192 kts | 193° |
| 2026-05-08 13:41 | 42.04929 | 12.17686 | 3166 ft | 191 kts | 173° |
| 2026-05-08 13:41 | 42.03650 | 12.18134 | 3163 ft | 190 kts | 162° |
| 2026-05-08 13:41 | 42.02388 | 12.18670 | 3168 ft | 190 kts | 162° |
| 2026-05-08 13:42 | 42.01126 | 12.19203 | 2987 ft | 189 kts | 162° |
| 2026-05-08 13:42 | 41.99866 | 12.19734 | 2986 ft | 190 kts | 162° |
| 2026-05-08 13:42 | 41.98620 | 12.20259 | 2843 ft | 190 kts | 162° |
| 2026-05-08 13:42 | 41.97373 | 12.20784 | 2622 ft | 184 kts | 162° |
| 2026-05-08 13:43 | 41.96167 | 12.21291 | 2396 ft | 179 kts | 162° |
| 2026-05-08 13:43 | 41.94990 | 12.21786 | 2161 ft | 175 kts | 162° |
| 2026-05-08 13:43 | 41.93835 | 12.22272 | 1935 ft | 172 kts | 163° |
| 2026-05-08 13:43 | 41.92717 | 12.22741 | 1715 ft | 163 kts | 163° |
| 2026-05-08 13:44 | 41.91662 | 12.23184 | 1509 ft | 153 kts | 162° |
| 2026-05-08 13:44 | 41.90669 | 12.23601 | 1298 ft | 146 kts | 162° |
| 2026-05-08 13:44 | 41.89731 | 12.23995 | 1118 ft | 137 kts | 162° |
| 2026-05-08 13:44 | 41.88837 | 12.24370 | 940 ft | 132 kts | 162° |
| 2026-05-08 13:45 | 41.87971 | 12.24733 | 763 ft | 129 kts | 162° |
| 2026-05-08 13:45 | 41.87126 | 12.25088 | 603 ft | 128 kts | 162° |
| 2026-05-08 13:45 | 41.86277 | 12.25444 | 425 ft | 127 kts | 162° |
| 2026-05-08 13:45 | 41.85429 | 12.25791 | 252 ft | 127 kts | 163° |
| 2026-05-08 13:46 | 41.84589 | 12.26146 | 65 ft | 126 kts | 162° |
| 2026-05-08 13:46 | 41.83805 | 12.26471 | 27 ft | 110 kts | 163° |
| 2026-05-08 13:46 | 41.82933 | 12.26801 | 481 ft | 145 kts | 164° |
| 2026-05-08 13:46 | 41.81896 | 12.27158 | 966 ft | 167 kts | 166° |
| 2026-05-08 13:47 | 41.80663 | 12.27547 | 1467 ft | 188 kts | 167° |
| 2026-05-08 13:47 | 41.79352 | 12.27504 | 2235 ft | 198 kts | 201° |
| 2026-05-08 13:47 | 41.78202 | 12.26350 | 2776 ft | 221 kts | 234° |
| 2026-05-08 13:47 | 41.77363 | 12.24532 | 2974 ft | 233 kts | 245° |
| 2026-05-08 13:48 | 41.77004 | 12.22463 | 3003 ft | 229 kts | 276° |
| 2026-05-08 13:48 | 41.77532 | 12.20504 | 3007 ft | 225 kts | 309° |
| 2026-05-08 13:48 | 41.78288 | 12.19576 | 3010 ft | 224 kts | 328° |
| 2026-05-08 13:48 | 41.79644 | 12.18551 | 3130 ft | 224 kts | 333° |
| 2026-05-08 13:49 | 41.81002 | 12.17632 | 3139 ft | 211 kts | 334° |
| 2026-05-08 13:49 | 41.82271 | 12.16783 | 3086 ft | 199 kts | 334° |
| 2026-05-08 13:49 | 41.83929 | 12.15905 | 2923 ft | 190 kts | 357° |
| 2026-05-08 13:49 | 41.85159 | 12.16374 | 2807 ft | 186 kts | 37° |
| 2026-05-08 13:50 | 41.86007 | 12.17656 | 2691 ft | 184 kts | 53° |
| 2026-05-08 13:50 | 41.86468 | 12.18638 | 2568 ft | 184 kts | 65° |
| 2026-05-08 13:50 | 41.86680 | 12.20308 | 2107 ft | 186 kts | 97° |
| 2026-05-08 13:50 | 41.86193 | 12.21851 | 1722 ft | 184 kts | 137° |
| 2026-05-08 13:51 | 41.85046 | 12.22449 | 1335 ft | 179 kts | 181° |
| 2026-05-08 13:51 | 41.83846 | 12.22219 | 894 ft | 175 kts | 187° |
| 2026-05-08 13:51 | 41.82635 | 12.22264 | 424 ft | 171 kts | 168° |
| 2026-05-08 13:51 | 41.81520 | 12.22678 | 93 ft | 160 kts | 163° |
| 2026-05-08 13:52 | 41.80558 | 12.23062 | 46 ft | 127 kts | 163° |
| 2026-05-08 13:52 | 41.79809 | 12.23368 | 17 ft | 95 kts | 161° |
| 2026-05-08 13:52 | 41.79343 | 12.23562 | 14 ft | 45 kts | 163° |
| 2026-05-08 13:52 | 41.79158 | 12.23667 | 15 ft | 25 kts | 145° |
| 2026-05-08 13:53 | 41.79031 | 12.23837 | 14 ft | 25 kts | 134° |
| 2026-05-08 13:53 | 41.78936 | 12.23985 | 16 ft | 18 kts | 120° |
| 2026-05-08 13:53 | 41.78940 | 12.24162 | 15 ft | 20 kts | 80° |
| 2026-05-08 13:53 | 41.78969 | 12.24307 | 15 ft | 12 kts | 71° |
| 2026-05-08 13:54 | 41.78994 | 12.24401 | 16 ft | 8 kts | 68° |
| 2026-05-08 13:54 | 41.79026 | 12.24457 | 14 ft | 6 kts | 39° |
| 2026-05-08 13:54 | 41.79045 | 12.24469 | 14 ft | 2 kts | 19° |
| 2026-05-08 13:54 | 41.79062 | 12.24474 | 14 ft | 3 kts | 7° |
| 2026-05-08 13:55 | 41.79085 | 12.24471 | 14 ft | 3 kts | 351° |
| 2026-05-08 13:55 | 41.79109 | 12.24463 | 14 ft | 4 kts | 344° |
| 2026-05-08 13:55 | 41.79120 | 12.24395 | 14 ft | 2 kts | 253° |
| 2026-05-08 13:56 | 41.79117 | 12.24385 | 14 ft | 0 kts | 251° |